createdAt,value
2023-07-04T00:01:07.665Z,1.80
2023-07-04T00:03:35.479Z,1.58
2023-07-04T00:06:02.892Z,1.40
2023-07-04T00:08:31.250Z,1.40
2023-07-04T00:10:58.713Z,1.13
2023-07-04T00:13:27.133Z,1.58
2023-07-04T00:15:55.263Z,1.38
2023-07-04T00:18:23.775Z,1.70
2023-07-04T00:20:55.719Z,1.58
2023-07-04T00:25:56.039Z,1.50
2023-07-04T00:28:24.802Z,1.60
2023-07-04T00:30:53.712Z,2.15
2023-07-04T00:33:22.852Z,1.33
2023-07-04T00:35:50.797Z,1.42
2023-07-04T00:38:20.698Z,1.45
2023-07-04T00:40:47.950Z,1.40
2023-07-04T00:43:14.771Z,1.25
2023-07-04T00:45:44.787Z,1.60
2023-07-04T00:48:16.455Z,2.05
2023-07-04T00:50:46.606Z,1.20
2023-07-04T00:53:16.463Z,1.70
2023-07-04T00:55:49.200Z,1.60
2023-07-04T00:58:16.786Z,1.40
2023-07-04T01:00:45.347Z,1.38
2023-07-04T01:03:15.951Z,1.38
2023-07-04T01:05:57.680Z,1.65
2023-07-04T01:08:33.281Z,1.92
2023-07-04T01:11:10.861Z,1.63
2023-07-04T01:13:38.984Z,1.60
2023-07-04T01:16:11.460Z,1.90
2023-07-04T01:18:40.984Z,1.60
2023-07-04T01:21:10.193Z,1.50
2023-07-04T01:24:00.862Z,1.48
2023-07-04T01:26:38.461Z,1.65
2023-07-04T01:29:11.749Z,1.45
2023-07-04T01:31:39.108Z,1.90
2023-07-04T01:34:06.554Z,1.55
2023-07-04T01:36:36.160Z,1.35
2023-07-04T01:39:03.723Z,1.20
2023-07-04T01:41:31.674Z,1.73
2023-07-04T01:44:05.751Z,1.52
2023-07-04T01:46:34.415Z,1.40
2023-07-04T01:49:02.389Z,1.58
2023-07-04T01:51:32.055Z,1.70
2023-07-04T01:53:58.864Z,1.60
2023-07-04T01:56:25.726Z,1.90
2023-07-04T01:58:52.546Z,1.60
2023-07-04T02:01:20.122Z,1.80
2023-07-04T02:03:46.958Z,1.48
2023-07-04T02:06:16.382Z,1.58
2023-07-04T02:08:43.167Z,1.90
2023-07-04T02:11:09.945Z,1.60
2023-07-04T02:13:36.726Z,1.80
2023-07-04T02:16:03.502Z,1.33
2023-07-04T02:18:31.067Z,1.75
2023-07-04T02:20:57.798Z,1.63
2023-07-04T02:23:24.613Z,1.40
2023-07-04T02:25:54.136Z,1.27
2023-07-04T02:28:20.879Z,1.50
2023-07-04T02:30:59.049Z,1.50
2023-07-04T02:33:27.707Z,1.70
2023-07-04T02:35:54.577Z,1.58
2023-07-04T02:38:22.596Z,1.38
2023-07-04T02:40:52.848Z,1.42
2023-07-04T02:43:20.345Z,1.63
2023-07-04T02:45:47.698Z,1.90
2023-07-04T02:48:16.031Z,1.50
2023-07-04T02:50:43.612Z,1.58
2023-07-04T02:53:11.346Z,1.42
2023-07-04T02:55:38.499Z,1.48
2023-07-04T02:58:06.967Z,1.30
2023-07-04T03:00:35.375Z,1.70
2023-07-04T03:03:04.006Z,1.38
2023-07-04T03:05:32.598Z,1.35
2023-07-04T03:07:59.347Z,1.63
2023-07-04T03:10:26.346Z,1.45
2023-07-04T03:12:53.908Z,1.42
2023-07-04T03:15:21.206Z,1.45
2023-07-04T03:17:51.089Z,1.85
2023-07-04T03:20:19.469Z,1.40
2023-07-04T03:22:50.088Z,1.63
2023-07-04T03:25:17.318Z,1.33
2023-07-04T03:27:47.483Z,1.42
2023-07-04T03:30:16.758Z,2.15
2023-07-04T03:32:45.933Z,1.80
2023-07-04T03:35:12.694Z,1.27
2023-07-04T03:37:42.478Z,1.60
2023-07-04T03:40:11.252Z,1.80
2023-07-04T03:42:40.236Z,1.38
2023-07-04T03:45:08.627Z,1.90
2023-07-04T03:47:35.568Z,1.30
2023-07-04T03:50:05.177Z,1.30
2023-07-04T03:52:32.009Z,1.92
2023-07-04T03:54:58.810Z,1.55
2023-07-04T03:57:25.748Z,1.60
2023-07-04T03:59:52.593Z,1.35
2023-07-04T04:02:19.333Z,1.75
2023-07-04T04:04:48.292Z,1.55
2023-07-04T04:07:16.078Z,1.40
2023-07-04T04:09:43.476Z,1.60
2023-07-04T04:12:11.141Z,1.42
2023-07-04T04:14:38.340Z,1.60
2023-07-04T04:17:06.115Z,1.30
2023-07-04T04:19:33.240Z,1.40
2023-07-04T04:21:59.922Z,1.50
2023-07-04T04:24:26.648Z,1.67
2023-07-04T04:26:53.366Z,1.60
2023-07-04T04:29:21.268Z,1.67
2023-07-04T04:31:48.476Z,1.42
2023-07-04T04:34:18.272Z,1.50
2023-07-04T04:36:45.987Z,1.67
2023-07-04T04:39:13.270Z,1.50
2023-07-04T04:41:40.314Z,1.45
2023-07-04T04:44:07.100Z,1.60
2023-07-04T04:46:34.519Z,1.45
2023-07-04T04:49:04.756Z,1.50
2023-07-04T04:51:34.563Z,1.60
2023-07-04T04:54:02.479Z,1.25
2023-07-04T04:56:29.996Z,1.63
2023-07-04T04:58:57.444Z,1.35
2023-07-04T05:01:26.274Z,1.80
2023-07-04T05:03:57.333Z,1.75
2023-07-04T05:06:27.334Z,1.40
2023-07-04T05:08:54.418Z,1.60
2023-07-04T05:11:21.953Z,1.50
2023-07-04T05:13:50.355Z,1.60
2023-07-04T05:16:19.867Z,1.23
2023-07-04T05:18:48.118Z,1.45
2023-07-04T05:21:21.158Z,1.85
2023-07-04T05:23:49.632Z,1.40
2023-07-04T05:26:25.385Z,1.70
2023-07-04T05:28:53.577Z,1.70
2023-07-04T05:31:23.882Z,1.40
2023-07-04T05:33:53.153Z,1.50
2023-07-04T05:36:21.478Z,1.30
2023-07-04T05:38:50.178Z,1.40
2023-07-04T05:41:19.772Z,1.30
2023-07-04T05:43:47.231Z,1.40
2023-07-04T05:46:15.719Z,1.35
2023-07-04T05:48:43.532Z,1.60
2023-07-04T05:51:12.872Z,1.08
2023-07-04T05:53:44.556Z,1.20
2023-07-04T05:56:18.624Z,1.20
2023-07-04T05:58:50.289Z,1.13
2023-07-04T06:01:26.969Z,1.42
2023-07-04T06:03:54.956Z,1.52
2023-07-04T06:06:32.053Z,1.30
2023-07-04T06:09:01.245Z,1.30
2023-07-04T06:11:32.618Z,1.40
2023-07-04T06:13:59.438Z,1.35
2023-07-04T06:16:26.275Z,1.15
2023-07-04T06:18:53.195Z,1.40
2023-07-04T06:21:34.084Z,1.30
2023-07-04T06:24:09.584Z,1.30
2023-07-04T06:26:36.387Z,1.23
2023-07-04T06:29:03.154Z,1.20
2023-07-04T06:31:30.144Z,1.60
2023-07-04T06:33:57.284Z,1.60
2023-07-04T06:36:24.489Z,1.25
2023-07-04T06:38:51.465Z,1.48
2023-07-04T06:41:18.816Z,1.45
2023-07-04T06:43:47.859Z,1.40
2023-07-04T06:46:18.040Z,1.40
2023-07-04T06:48:48.299Z,1.20
2023-07-04T06:51:18.051Z,1.45
2023-07-04T06:53:46.183Z,1.38
2023-07-04T06:56:18.836Z,1.73
2023-07-04T06:58:51.450Z,1.40
2023-07-04T07:01:20.816Z,1.45
2023-07-04T07:03:47.832Z,1.65
2023-07-04T07:06:14.797Z,1.38
2023-07-04T07:08:41.823Z,1.27
2023-07-04T07:11:11.823Z,1.45
2023-07-04T07:13:40.333Z,1.77
2023-07-04T07:16:07.168Z,1.55
2023-07-04T07:18:35.335Z,1.80
2023-07-04T07:21:03.938Z,1.42
2023-07-04T07:23:34.605Z,1.75
2023-07-04T07:26:03.492Z,1.48
2023-07-04T07:28:34.873Z,1.80
2023-07-04T07:31:14.122Z,1.50
2023-07-04T07:33:43.164Z,1.67
2023-07-04T07:36:16.906Z,1.40
2023-07-04T07:38:44.146Z,1.58
2023-07-04T07:41:11.481Z,1.50
2023-07-04T07:43:39.906Z,1.80
2023-07-04T07:46:11.596Z,2.28
2023-07-04T07:51:07.730Z,1.60
2023-07-04T07:53:36.211Z,2.60
2023-07-04T07:56:04.941Z,3.25
2023-07-04T07:58:32.409Z,2.88
2023-07-04T08:00:59.213Z,3.83
2023-07-04T08:03:26.106Z,3.38
2023-07-04T08:05:52.859Z,3.03
2023-07-04T08:08:19.714Z,3.00
2023-07-04T08:10:46.433Z,2.97
2023-07-04T08:13:13.636Z,2.90
2023-07-04T08:15:40.390Z,2.60
2023-07-04T08:18:09.067Z,3.45
2023-07-04T08:20:36.141Z,3.60
2023-07-04T08:23:03.240Z,3.30
2023-07-04T08:25:29.945Z,3.17
2023-07-04T08:27:56.748Z,3.40
2023-07-04T08:30:23.796Z,4.05
2023-07-04T08:32:53.860Z,4.70
2023-07-04T08:35:20.663Z,4.70
2023-07-04T08:37:47.476Z,4.28
2023-07-04T08:40:16.763Z,3.72
2023-07-04T08:42:44.607Z,3.58
2023-07-04T08:45:21.696Z,3.83
2023-07-04T08:47:48.584Z,3.92
2023-07-04T08:50:28.458Z,3.45
2023-07-04T08:53:03.194Z,3.97
2023-07-04T08:55:36.057Z,4.32
2023-07-04T08:58:06.138Z,4.28
2023-07-04T09:00:36.896Z,3.72
2023-07-04T09:03:22.001Z,4.10
2023-07-04T09:05:54.937Z,3.95
2023-07-04T09:08:46.485Z,5.30
2023-07-04T09:11:14.492Z,5.45
2023-07-04T09:13:44.175Z,4.75
2023-07-04T09:16:13.910Z,4.35
2023-07-04T09:19:00.822Z,4.20
2023-07-04T09:21:29.472Z,4.03
2023-07-04T09:23:59.809Z,4.18
2023-07-04T09:26:44.062Z,4.63
2023-07-04T09:29:11.533Z,4.15
2023-07-04T09:31:41.943Z,5.07
2023-07-04T09:34:22.664Z,4.30
2023-07-04T09:36:52.432Z,5.60
2023-07-04T09:39:19.170Z,6.88
2023-07-04T09:42:18.406Z,5.20
2023-07-04T09:44:46.670Z,5.10
2023-07-04T09:47:33.485Z,4.95
2023-07-04T09:50:11.356Z,5.22
2023-07-04T09:52:39.592Z,5.30
2023-07-04T09:55:27.436Z,5.22
2023-07-04T09:57:54.431Z,5.30
2023-07-04T10:00:24.567Z,6.30
2023-07-04T10:02:58.205Z,6.80
2023-07-04T10:05:30.288Z,6.07
2023-07-04T10:08:08.734Z,5.35
2023-07-04T10:10:54.127Z,4.53
2023-07-04T10:13:25.534Z,4.28
2023-07-04T10:15:52.723Z,3.95
2023-07-04T10:18:32.115Z,3.60
2023-07-04T10:21:00.769Z,3.72
2023-07-04T10:23:29.764Z,4.00
2023-07-04T10:25:59.051Z,3.92
2023-07-04T10:28:27.788Z,3.55
2023-07-04T10:31:07.334Z,3.60
2023-07-04T10:33:46.853Z,3.65
2023-07-04T10:36:17.520Z,3.28
2023-07-04T10:38:48.167Z,3.10
2023-07-04T10:41:27.107Z,2.97
2023-07-04T10:44:02.631Z,2.90
2023-07-04T10:46:32.025Z,3.08
2023-07-04T10:49:10.336Z,3.00
2023-07-04T10:51:41.456Z,2.85
2023-07-04T10:54:12.907Z,2.97
2023-07-04T10:59:20.432Z,2.63
2023-07-04T11:01:56.076Z,3.00
2023-07-04T11:04:34.412Z,2.78
2023-07-04T11:07:05.304Z,2.97
2023-07-04T11:09:39.102Z,2.58
2023-07-04T11:12:08.675Z,2.17
2023-07-04T11:14:39.394Z,2.22
2023-07-04T11:17:17.995Z,2.53
2023-07-04T11:20:12.832Z,2.50
2023-07-04T11:22:58.531Z,2.67
2023-07-04T11:25:33.425Z,2.80
2023-07-04T11:28:35.500Z,2.33
2023-07-04T11:31:12.943Z,2.55
2023-07-04T11:33:53.879Z,2.50
2023-07-04T11:36:30.944Z,2.13
2023-07-04T11:39:05.875Z,2.45
2023-07-04T11:41:44.009Z,2.30
2023-07-04T11:44:24.930Z,3.47
2023-07-04T11:47:04.980Z,2.25
2023-07-04T11:49:33.827Z,2.35
2023-07-04T11:52:17.894Z,2.47
2023-07-04T11:54:46.217Z,2.30
2023-07-04T11:57:16.752Z,2.85
2023-07-04T11:59:45.289Z,2.53
2023-07-04T12:02:32.693Z,2.38
2023-07-04T12:05:02.149Z,2.00
2023-07-04T12:07:48.588Z,2.60
2023-07-04T12:10:20.858Z,2.03
2023-07-04T12:12:58.389Z,2.55
2023-07-04T12:15:37.077Z,2.20
2023-07-04T12:18:27.807Z,2.47
2023-07-04T12:20:55.719Z,2.73
2023-07-04T12:23:22.874Z,3.13
2023-07-04T12:25:52.510Z,2.72
2023-07-04T12:28:24.664Z,2.00
2023-07-04T12:30:59.858Z,2.00
2023-07-04T12:33:46.199Z,2.75
2023-07-04T12:36:16.792Z,2.40
2023-07-04T12:38:49.589Z,3.10
2023-07-04T12:41:22.273Z,2.25
2023-07-04T12:51:31.311Z,1.90
2023-07-04T12:54:02.273Z,2.22
2023-07-04T12:56:30.809Z,1.98
2023-07-04T12:58:57.869Z,1.85
2023-07-04T13:01:36.219Z,1.90
2023-07-04T13:04:11.390Z,1.88
2023-07-04T13:06:38.393Z,2.20
2023-07-04T13:09:06.998Z,1.55
2023-07-04T13:11:34.840Z,1.45
2023-07-04T13:14:10.230Z,1.98
2023-07-04T13:16:39.703Z,1.75
2023-07-04T13:19:06.641Z,1.52
2023-07-04T13:21:39.503Z,1.80
2023-07-04T13:26:43.531Z,1.40
2023-07-04T13:34:25.059Z,1.77
2023-07-04T13:37:03.533Z,1.73
2023-07-04T13:42:01.611Z,1.50
2023-07-04T13:46:57.999Z,1.90
2023-07-04T13:49:25.087Z,1.63
2023-07-04T13:51:52.187Z,1.20
2023-07-04T13:54:19.298Z,1.50
2023-07-04T13:56:46.018Z,1.63
2023-07-04T13:59:12.860Z,1.40
2023-07-04T14:06:39.709Z,1.60
2023-07-04T14:09:06.718Z,1.77
2023-07-04T14:11:33.471Z,1.75
2023-07-04T14:14:04.358Z,1.52
2023-07-04T14:19:58.826Z,1.80
2023-07-04T14:21:50.721Z,1.70
2023-07-04T14:24:17.652Z,2.00
2023-07-04T14:26:46.144Z,1.55
2023-07-04T14:29:12.839Z,1.88
2023-07-04T14:31:39.723Z,1.73
2023-07-04T14:34:06.538Z,1.65
2023-07-04T14:36:33.315Z,1.75
2023-07-04T14:39:01.711Z,1.75
2023-07-04T14:44:00.519Z,1.60
2023-07-04T14:46:27.308Z,1.50
2023-07-04T14:48:54.049Z,2.15
2023-07-04T14:51:20.940Z,1.88
2023-07-04T14:53:47.695Z,1.73
2023-07-04T14:56:16.814Z,1.98
2023-07-04T14:58:44.490Z,1.63
2023-07-04T15:01:21.253Z,1.60
2023-07-04T15:03:48.345Z,1.88
2023-07-04T15:06:15.685Z,2.63
2023-07-04T15:08:42.452Z,1.83
2023-07-04T15:11:09.252Z,1.45
2023-07-04T15:13:36.042Z,1.55
2023-07-04T15:16:05.971Z,1.77
2023-07-04T15:18:35.128Z,2.13
2023-07-04T15:21:02.254Z,2.25
2023-07-04T15:23:30.399Z,1.83
2023-07-04T15:26:15.420Z,1.63
2023-07-04T15:28:49.173Z,2.17
2023-07-04T15:31:16.581Z,1.92
2023-07-04T15:33:43.678Z,2.10
2023-07-04T15:36:11.054Z,2.15
2023-07-04T15:38:38.155Z,1.48
2023-07-04T15:41:09.095Z,1.90
2023-07-04T15:43:37.294Z,1.45
2023-07-04T15:46:12.024Z,2.10
2023-07-04T15:48:40.108Z,2.10
2023-07-04T15:51:08.189Z,1.42
2023-07-04T15:53:35.325Z,1.42
2023-07-04T15:56:07.468Z,1.50
2023-07-04T15:58:34.240Z,1.63
2023-07-04T16:01:02.682Z,1.77
2023-07-04T16:03:31.778Z,1.55
2023-07-04T16:05:59.289Z,1.90
2023-07-04T16:08:27.320Z,1.85
2023-07-04T16:10:59.709Z,1.70
2023-07-04T16:13:26.774Z,1.80
2023-07-04T16:15:54.243Z,1.70
2023-07-04T16:18:21.914Z,1.95
2023-07-04T16:20:48.948Z,1.70
2023-07-04T16:23:15.963Z,1.70
2023-07-04T16:25:44.289Z,1.60
2023-07-04T16:28:12.381Z,1.40
2023-07-04T16:30:40.538Z,1.70
2023-07-04T16:33:07.392Z,1.40
2023-07-04T16:35:34.145Z,1.40
2023-07-04T16:38:00.893Z,1.67
2023-07-04T16:40:27.639Z,1.98
2023-07-04T16:42:54.377Z,1.50
2023-07-04T16:45:21.090Z,1.60
2023-07-04T16:47:47.855Z,1.70
2023-07-04T16:50:30.062Z,1.42
2023-07-04T16:52:59.320Z,1.50
2023-07-04T16:55:26.333Z,1.50
2023-07-04T16:57:53.093Z,1.60
2023-07-04T17:00:20.041Z,1.63
2023-07-04T17:02:47.480Z,1.67
2023-07-04T17:05:14.289Z,1.40
2023-07-04T17:07:41.180Z,1.60
2023-07-04T17:10:08.884Z,1.30
2023-07-04T17:12:35.901Z,1.75
2023-07-04T17:15:02.792Z,1.38
2023-07-04T17:17:29.543Z,1.50
2023-07-04T17:19:56.316Z,1.55
2023-07-04T17:22:23.112Z,1.90
2023-07-04T17:24:59.524Z,1.58
2023-07-04T17:27:34.300Z,1.50
2023-07-04T17:30:01.184Z,1.70
2023-07-04T17:32:27.900Z,1.50
2023-07-04T17:34:54.696Z,1.48
2023-07-04T17:37:21.462Z,1.50
2023-07-04T17:39:48.262Z,1.70
2023-07-04T17:42:14.991Z,1.85
2023-07-04T17:44:41.698Z,1.50
2023-07-04T17:47:08.562Z,1.65
2023-07-04T17:49:35.291Z,1.67
2023-07-04T17:52:02.604Z,1.85
2023-07-04T17:54:29.341Z,1.40
2023-07-04T17:56:56.107Z,1.80
2023-07-04T17:59:22.891Z,1.38
2023-07-04T18:01:49.730Z,1.50
2023-07-04T18:04:16.588Z,1.95
2023-07-04T18:06:43.439Z,1.90
2023-07-04T18:09:10.266Z,1.42
2023-07-04T18:11:38.032Z,1.70
2023-07-04T18:14:05.002Z,1.73
2023-07-04T18:16:33.687Z,1.63
2023-07-04T18:19:00.639Z,1.52
2023-07-04T18:21:28.475Z,1.52
2023-07-04T18:24:00.787Z,1.63
2023-07-04T18:26:28.169Z,1.70
2023-07-04T18:28:55.412Z,1.63
2023-07-04T18:31:28.630Z,1.88
2023-07-04T18:34:00.784Z,2.03
2023-07-04T18:36:30.533Z,1.85
2023-07-04T18:38:57.344Z,1.80
2023-07-04T18:41:30.307Z,2.40
2023-07-04T18:43:57.164Z,2.10
2023-07-04T18:46:29.132Z,2.17
2023-07-04T18:48:56.184Z,2.30
2023-07-04T18:51:26.207Z,1.98
2023-07-04T18:53:55.658Z,2.00
2023-07-04T18:56:22.925Z,2.00
2023-07-04T18:58:53.193Z,2.10
2023-07-04T19:01:23.157Z,2.20
2023-07-04T19:03:51.647Z,2.13
2023-07-04T19:06:22.889Z,2.38
2023-07-04T19:08:50.742Z,2.17
2023-07-04T19:11:23.853Z,2.15
2023-07-04T19:14:22.105Z,2.58
2023-07-04T19:16:51.773Z,2.30
2023-07-04T19:19:21.305Z,2.30
2023-07-04T19:21:53.491Z,2.20
2023-07-04T19:24:21.772Z,2.20
2023-07-04T19:26:48.613Z,2.00
2023-07-04T19:29:15.798Z,2.20
2023-07-04T19:31:44.407Z,2.28
2023-07-04T19:34:17.976Z,2.60
2023-07-04T19:36:45.433Z,2.70
2023-07-04T19:39:12.733Z,2.20
2023-07-04T19:41:39.470Z,2.17
2023-07-04T19:44:06.383Z,2.70
2023-07-04T19:46:33.370Z,2.28
2023-07-04T19:49:00.285Z,2.63
2023-07-04T19:51:27.087Z,2.20
2023-07-04T19:53:55.616Z,2.30
2023-07-04T19:56:25.238Z,2.40
2023-07-04T19:58:53.148Z,2.20
2023-07-04T20:01:25.206Z,2.30
2023-07-04T20:03:53.783Z,2.60
2023-07-04T20:06:21.791Z,2.20
2023-07-04T20:08:50.713Z,2.42
2023-07-04T20:11:18.629Z,2.22
2023-07-04T20:13:45.582Z,2.17
2023-07-04T20:16:20.839Z,2.42
2023-07-04T20:18:47.766Z,2.30
2023-07-04T20:21:15.140Z,2.78
2023-07-04T20:23:42.346Z,2.70
2023-07-04T20:26:11.206Z,2.63
2023-07-04T20:28:38.431Z,2.70
2023-07-04T20:31:05.757Z,2.67
2023-07-04T20:33:34.700Z,2.67
2023-07-04T20:36:02.196Z,2.85
2023-07-04T20:38:29.190Z,2.70
2023-07-04T20:41:02.704Z,2.58
2023-07-04T20:43:29.465Z,2.70
2023-07-04T20:45:56.655Z,2.50
2023-07-04T20:48:23.823Z,2.47
2023-07-04T20:50:51.438Z,2.70
2023-07-04T20:53:18.822Z,2.55
2023-07-04T20:55:49.668Z,2.65
2023-07-04T20:58:18.174Z,2.70
2023-07-04T21:00:45.434Z,2.10
2023-07-04T21:03:12.373Z,2.40
2023-07-04T21:05:40.866Z,2.90
2023-07-04T21:08:08.413Z,2.50
2023-07-04T21:10:39.376Z,2.70
2023-07-04T21:13:17.875Z,2.35
2023-07-04T21:15:45.800Z,2.70
2023-07-04T21:18:13.068Z,2.83
2023-07-04T21:20:39.858Z,2.70
2023-07-04T21:23:06.916Z,2.85
2023-07-04T21:25:33.797Z,2.40
2023-07-04T21:28:00.676Z,2.50
2023-07-04T21:30:27.437Z,2.38
2023-07-04T21:32:54.300Z,2.80
2023-07-04T21:35:21.120Z,2.60
2023-07-04T21:37:48.600Z,2.80
2023-07-04T21:40:15.344Z,3.00
2023-07-04T21:42:42.108Z,2.63
2023-07-04T21:45:09.314Z,2.97
2023-07-04T21:47:36.139Z,2.90
2023-07-04T21:50:03.888Z,2.60
2023-07-04T21:52:30.729Z,2.70
2023-07-04T21:54:57.486Z,2.92
2023-07-04T21:57:24.222Z,2.70
2023-07-04T21:59:51.086Z,3.05
2023-07-04T22:02:18.532Z,2.63
2023-07-04T22:04:45.566Z,2.50
2023-07-04T22:07:12.298Z,3.05
2023-07-04T22:09:39.174Z,2.60
2023-07-04T22:12:06.134Z,3.00
2023-07-04T22:14:38.345Z,2.88
2023-07-04T22:17:06.831Z,2.88
2023-07-04T22:19:33.896Z,2.50
2023-07-04T22:22:00.709Z,2.88
2023-07-04T22:24:28.735Z,2.47
2023-07-04T22:26:56.049Z,2.25
2023-07-04T22:29:22.831Z,2.35
2023-07-04T22:31:49.753Z,2.30
2023-07-04T22:34:16.458Z,2.45
2023-07-04T22:36:43.476Z,2.10
2023-07-04T22:39:10.248Z,2.55
2023-07-04T22:41:37.208Z,2.20
2023-07-04T22:44:04.336Z,2.50
2023-07-04T22:46:31.588Z,2.60
2023-07-04T22:48:59.213Z,2.53
2023-07-04T22:51:26.012Z,2.40
2023-07-04T22:53:53.133Z,2.40
2023-07-04T22:56:20.560Z,2.28
2023-07-04T22:58:47.762Z,2.13
2023-07-04T23:01:20.476Z,2.05
2023-07-04T23:03:49.142Z,2.20
2023-07-04T23:06:16.648Z,2.35
2023-07-04T23:08:44.731Z,2.05
2023-07-04T23:11:11.948Z,2.45
2023-07-04T23:13:39.006Z,2.40
2023-07-04T23:16:07.654Z,2.38
2023-07-04T23:18:34.906Z,2.58
2023-07-04T23:21:01.761Z,2.60
2023-07-04T23:23:29.331Z,2.85
2023-07-04T23:25:59.066Z,3.30
2023-07-04T23:28:26.242Z,2.65
2023-07-04T23:30:53.128Z,2.25
2023-07-04T23:33:19.998Z,2.33
2023-07-04T23:35:56.917Z,2.35
2023-07-04T23:38:23.812Z,2.22
2023-07-04T23:40:51.392Z,2.22
2023-07-04T23:43:18.870Z,2.38
2023-07-04T23:45:46.133Z,2.42
2023-07-04T23:48:13.412Z,2.08
2023-07-04T23:50:41.483Z,2.33
2023-07-04T23:53:08.253Z,2.35
2023-07-04T23:55:35.315Z,2.40
2023-07-04T23:58:02.100Z,2.42
